Time;durP1;ratioP1;P1;durP2;ratioP2;P2;SDS_P1;SDS_P2;PMS_P1;PMS_P2;Temp;Humidity;BMP_temperature;BMP_pressure;BME280_temperature;BME280_humidity;BME280_pressure;Samples;Min_cycle;Max_cycle;Signal;HPM_P1;HPM_P2
2022/11/11 00:00:20;;;;;;;15.02;7.93;;;10.40;99.90;;;;;;5150205;27;20051;-76
2022/11/11 00:02:46;;;;;;;13.55;8.68;;;10.40;99.90;;;;;;5150436;27;20133;-76
2022/11/11 00:05:12;;;;;;;13.95;8.13;;;10.50;99.90;;;;;;5132182;27;20051;-76
2022/11/11 00:07:37;;;;;;;14.23;7.43;;;10.50;99.90;;;;;;5136438;27;20096;-76
2022/11/11 00:10:03;;;;;;;11.07;7.82;;;10.50;99.90;;;;;;5128216;27;20054;-76
2022/11/11 00:12:29;;;;;;;13.00;8.00;;;10.60;99.90;;;;;;5127617;27;20071;-76
2022/11/11 00:14:54;;;;;;;13.43;7.80;;;10.60;99.90;;;;;;5135724;27;20404;-76
2022/11/11 00:25:33;;;;;;;14.93;8.25;;;10.70;99.90;;;;;;5129912;27;20071;-76
2022/11/11 00:27:59;;;;;;;11.73;8.25;;;10.70;99.90;;;;;;5128754;27;20043;-76
2022/11/11 00:30:24;;;;;;;13.10;8.00;;;10.70;99.90;;;;;;5128596;27;20401;-76
2022/11/11 00:32:50;;;;;;;14.95;8.43;;;10.70;99.90;;;;;;5130079;27;20050;-76
2022/11/11 00:38:07;;;;;;;17.48;8.50;;;10.70;99.90;;;;;;5127739;27;20051;-76
2022/11/11 00:40:33;;;;;;;12.88;8.20;;;10.80;99.90;;;;;;5128853;27;20047;-76
2022/11/11 00:42:58;;;;;;;14.07;8.60;;;10.80;99.90;;;;;;5145025;27;20053;-76
2022/11/11 00:45:24;;;;;;;15.50;7.50;;;10.80;99.90;;;;;;5147704;27;20043;-76
2022/11/11 00:53:20;;;;;;;15.55;8.07;;;10.80;99.90;;;;;;5147205;27;20125;-76
2022/11/11 00:55:46;;;;;;;12.50;8.65;;;10.80;99.90;;;;;;5148051;27;20046;-76
2022/11/11 00:58:11;;;;;;;12.23;7.47;;;10.80;99.90;;;;;;5142010;27;20055;-76
2022/11/11 01:00:37;;;;;;;13.32;8.18;;;10.80;99.90;;;;;;5135875;27;20134;-76
2022/11/11 01:03:03;;;;;;;13.23;8.65;;;10.80;99.90;;;;;;5137102;27;20184;-76
2022/11/11 01:05:28;;;;;;;13.35;8.48;;;10.80;99.90;;;;;;5110354;28;20048;-76
2022/11/11 01:07:54;;;;;;;15.52;8.55;;;10.80;99.90;;;;;;5128481;27;20054;-76
2022/11/11 01:13:27;;;;;;;11.52;8.70;;;10.70;99.90;;;;;;5138568;27;20079;-76
2022/11/11 01:16:01;;;;;;;16.13;8.95;;;10.70;99.90;;;;;;5134299;27;20078;-76
2022/11/11 01:18:28;;;;;;;14.95;9.63;;;10.60;99.90;;;;;;5127006;27;20054;-76
2022/11/11 01:21:13;;;;;;;11.40;9.48;;;10.60;99.90;;;;;;5109589;28;20079;-76
2022/11/11 01:23:41;;;;;;;14.38;10.07;;;10.30;99.90;;;;;;5127536;28;20404;-76
2022/11/11 01:26:13;;;;;;;16.63;9.15;;;10.80;99.90;;;;;;5128029;27;20060;-76
2022/11/11 01:28:39;;;;;;;16.30;9.70;;;10.40;99.90;;;;;;5126833;28;20102;-76
2022/11/11 01:31:08;;;;;;;16.13;9.93;;;10.30;99.90;;;;;;5128369;27;20092;-76
2022/11/11 01:33:34;;;;;;;13.77;9.77;;;10.30;99.90;;;;;;5127828;27;20054;-76
2022/11/11 01:36:10;;;;;;;11.27;9.43;;;10.30;99.90;;;;;;5126978;28;20424;-77
2022/11/11 01:38:37;;;;;;;16.17;10.65;;;10.20;99.90;;;;;;5126893;28;20069;-76
2022/11/11 01:41:31;;;;;;;15.35;10.43;;;10.20;99.90;;;;;;5126688;27;20047;-76
2022/11/11 01:43:52;;;;;;;17.00;11.02;;;10.90;99.90;;;;;;5132075;27;20120;-76
2022/11/11 01:46:29;;;;;;;18.42;11.15;;;10.10;99.90;;;;;;5132333;27;20047;-76
2022/11/11 01:49:19;;;;;;;16.75;11.43;;;10.00;99.90;;;;;;5146379;27;20051;-76
2022/11/11 01:52:01;;;;;;;19.27;11.23;;;10.00;99.90;;;;;;5131160;27;20447;-77
2022/11/11 01:54:38;;;;;;;17.95;12.13;;;10.00;99.90;;;;;;5134752;27;20038;-76
2022/11/11 01:57:17;;;;;;;15.35;10.80;;;9.90;99.90;;;;;;5149629;27;20042;-77
2022/11/11 01:59:46;;;;;;;24.85;11.77;;;9.90;99.90;;;;;;5146003;27;20055;-76
2022/11/11 02:02:23;;;;;;;18.75;11.98;;;9.80;99.90;;;;;;5143382;27;20047;-76
2022/11/11 02:07:35;;;;;;;18.50;11.88;;;9.70;99.90;;;;;;5131847;27;20058;-76
2022/11/11 02:10:04;;;;;;;21.30;12.57;;;9.70;99.90;;;;;;5131896;27;20131;-76
2022/11/11 02:15:14;;;;;;;20.00;12.38;;;9.20;99.90;;;;;;5130393;27;20059;-76
2022/11/11 02:17:40;;;;;;;18.80;12.80;;;9.60;99.90;;;;;;5114339;27;20473;-76
2022/11/11 02:20:07;;;;;;;20.05;12.90;;;9.10;99.90;;;;;;5151253;27;20049;-76
2022/11/11 02:23:06;;;;;;;20.08;13.05;;;9.50;99.90;;;;;;5150973;27;20465;-76
2022/11/11 02:25:33;;;;;;;18.85;12.75;;;9.70;99.90;;;;;;5114823;27;20489;-77
2022/11/11 02:28:03;;;;;;;19.25;14.00;;;9.50;99.90;;;;;;5132934;27;20504;-76
2022/11/11 02:30:28;;;;;;;18.52;13.98;;;9.40;99.90;;;;;;5150270;27;20349;-76
2022/11/11 02:32:54;;;;;;;20.92;13.80;;;9.50;99.90;;;;;;5112911;27;20043;-76
2022/11/11 02:35:29;;;;;;;22.35;14.93;;;9.00;99.90;;;;;;5130038;27;20104;-76
2022/11/11 02:37:55;;;;;;;26.13;15.10;;;9.50;99.90;;;;;;5129459;27;20051;-76
2022/11/11 02:40:33;;;;;;;23.25;15.00;;;9.50;99.90;;;;;;5139600;27;20050;-76
2022/11/11 02:42:59;;;;;;;19.33;15.00;;;9.50;99.90;;;;;;5150391;27;20396;-76
2022/11/11 02:45:25;;;;;;;22.73;15.23;;;9.60;99.90;;;;;;5150315;27;20042;-76
2022/11/11 02:47:50;;;;;;;23.92;14.98;;;9.80;99.90;;;;;;5141083;27;20047;-75
2022/11/11 02:50:16;;;;;;;22.63;16.08;;;9.50;99.90;;;;;;5148971;27;20038;-76
2022/11/11 02:52:41;;;;;;;25.60;15.48;;;9.50;99.90;;;;;;5149371;27;20043;-76
2022/11/11 02:55:09;;;;;;;26.23;16.33;;;9.50;99.90;;;;;;5149794;27;20559;-76
2022/11/11 02:57:35;;;;;;;27.75;16.77;;;8.80;99.90;;;;;;5148992;27;20042;-76
2022/11/11 03:00:01;;;;;;;22.90;16.48;;;9.50;99.90;;;;;;5114417;27;20685;-76
2022/11/11 03:02:27;;;;;;;25.38;16.95;;;9.60;99.90;;;;;;5132393;27;20047;-76
2022/11/11 03:04:54;;;;;;;20.73;15.85;;;9.60;99.90;;;;;;5147817;27;20126;-76
2022/11/11 03:07:20;;;;;;;26.52;16.20;;;9.60;99.90;;;;;;5150117;27;20116;-76
2022/11/11 03:09:46;;;;;;;23.58;16.38;;;9.60;99.90;;;;;;5149999;27;20074;-76
2022/11/11 03:12:11;;;;;;;26.52;17.23;;;9.50;99.90;;;;;;5149142;27;20093;-76
2022/11/11 03:14:37;;;;;;;26.65;17.50;;;9.50;99.90;;;;;;5150557;27;20410;-76
2022/11/11 03:19:47;;;;;;;27.58;17.60;;;8.90;99.90;;;;;;5135229;27;20051;-76
2022/11/11 03:22:12;;;;;;;23.35;16.95;;;9.40;99.90;;;;;;5148591;27;20480;-77
2022/11/11 03:27:22;;;;;;;27.40;17.10;;;9.30;99.90;;;;;;5148656;27;20560;-76
2022/11/11 03:29:48;;;;;;;23.80;17.05;;;9.30;99.90;;;;;;5147765;27;20047;-76
2022/11/11 03:32:13;;;;;;;25.38;17.77;;;9.30;99.90;;;;;;5149900;27;20054;-76
2022/11/11 03:34:39;;;;;;;27.63;17.42;;;9.40;99.90;;;;;;5147985;27;20438;-76
2022/11/11 03:39:51;;;;;;;28.27;18.52;;;9.20;99.90;;;;;;5146844;27;20054;-76
2022/11/11 03:42:16;;;;;;;28.25;18.92;;;9.30;99.90;;;;;;5148514;27;20053;-76
2022/11/11 03:44:42;;;;;;;33.00;20.15;;;9.40;99.90;;;;;;5147947;27;20042;-76
2022/11/11 03:47:08;;;;;;;30.90;19.20;;;9.10;99.90;;;;;;5130865;27;20049;-76
2022/11/11 03:49:33;;;;;;;29.85;19.33;;;9.40;99.90;;;;;;5149490;27;20046;-76
2022/11/11 03:51:59;;;;;;;27.60;19.58;;;9.50;99.90;;;;;;5149554;27;20126;-76
2022/11/11 03:54:24;;;;;;;30.15;18.98;;;9.50;99.90;;;;;;5148041;27;20459;-76
2022/11/11 03:56:50;;;;;;;30.75;19.45;;;9.60;99.90;;;;;;5147195;27;20256;-76
2022/11/11 03:59:15;;;;;;;30.05;19.38;;;9.60;99.90;;;;;;5149428;27;20057;-76
2022/11/11 04:18:08;;;;;;;26.23;19.83;;;9.80;99.90;;;;;;5136022;27;20054;-76
2022/11/11 04:23:18;;;;;;;27.63;19.35;;;9.90;99.90;;;;;;5127852;27;20047;-76
2022/11/11 04:25:51;;;;;;;29.02;19.65;;;9.90;99.90;;;;;;5144240;27;20552;-76
2022/11/11 04:31:01;;;;;;;29.80;19.50;;;10.00;99.90;;;;;;5148782;27;20432;-76
2022/11/11 04:33:27;;;;;;;28.00;19.98;;;9.50;99.90;;;;;;5148833;27;20041;-76
2022/11/11 04:35:52;;;;;;;30.13;21.02;;;10.00;99.90;;;;;;5146144;27;20043;-76
2022/11/11 04:41:02;;;;;;;30.17;18.95;;;10.00;99.90;;;;;;5145776;27;20042;-76
2022/11/11 04:43:29;;;;;;;28.17;20.27;;;10.00;99.90;;;;;;5131096;27;20721;-76
2022/11/11 04:45:58;;;;;;;28.27;20.42;;;10.10;99.90;;;;;;5148101;27;20074;-76
2022/11/11 04:48:24;;;;;;;29.27;20.15;;;10.10;99.90;;;;;;5131258;27;20562;-76
2022/11/11 04:50:50;;;;;;;31.17;20.17;;;10.10;99.90;;;;;;5127181;27;20108;-76
2022/11/11 04:53:15;;;;;;;32.83;19.65;;;10.10;99.90;;;;;;5127546;27;20130;-76
2022/11/11 04:58:32;;;;;;;30.35;19.80;;;10.10;99.90;;;;;;5148426;27;20054;-76
2022/11/11 05:00:58;;;;;;;30.58;19.67;;;10.10;99.90;;;;;;5127467;27;20099;-76
2022/11/11 05:03:23;;;;;;;31.83;20.40;;;9.80;99.90;;;;;;5127715;27;20043;-76
2022/11/11 05:08:57;;;;;;;28.38;20.02;;;10.20;99.90;;;;;;5133001;27;20039;-78
2022/11/11 05:11:29;;;;;;;28.27;20.45;;;10.30;99.90;;;;;;5147886;27;20434;-78
2022/11/11 05:22:29;;;;;;;27.60;19.20;;;10.30;99.90;;;;;;5131138;27;20063;-78
2022/11/11 05:27:39;;;;;;;29.20;19.63;;;10.30;99.90;;;;;;5130875;27;20121;-78
2022/11/11 05:30:07;;;;;;;28.95;19.30;;;10.30;99.90;;;;;;5120430;27;20174;-78
2022/11/11 05:32:33;;;;;;;26.58;19.20;;;10.30;99.90;;;;;;5153817;27;20122;-77
2022/11/11 05:34:58;;;;;;;28.58;19.20;;;10.20;99.90;;;;;;5154051;27;20134;-78
2022/11/11 05:37:24;;;;;;;31.63;19.40;;;10.30;99.90;;;;;;5151804;27;20410;-79
2022/11/11 05:39:50;;;;;;;27.42;19.27;;;10.30;99.90;;;;;;5152729;27;20059;-78
2022/11/11 05:42:16;;;;;;;28.02;18.50;;;10.30;99.90;;;;;;5150230;27;20054;-77
2022/11/11 05:44:45;;;;;;;27.85;20.15;;;10.30;99.90;;;;;;5151485;27;20523;-77
2022/11/11 05:47:10;;;;;;;29.73;19.20;;;10.40;99.90;;;;;;5153021;27;20087;-78
2022/11/11 05:49:36;;;;;;;25.35;18.42;;;10.20;99.90;;;;;;5150406;27;20046;-78
2022/11/11 05:52:02;;;;;;;27.25;18.13;;;10.20;99.90;;;;;;5141740;27;20345;-77
2022/11/11 05:54:28;;;;;;;27.00;19.00;;;10.30;99.90;;;;;;5151790;27;20627;-77
2022/11/11 05:56:53;;;;;;;28.08;18.95;;;10.30;99.90;;;;;;5152250;27;20095;-77
2022/11/11 05:59:19;;;;;;;24.85;18.08;;;10.20;99.90;;;;;;5150842;27;20055;-77
2022/11/11 06:01:45;;;;;;;26.58;18.60;;;10.30;99.90;;;;;;5151354;27;20055;-76
2022/11/11 06:04:10;;;;;;;32.40;19.80;;;10.30;99.90;;;;;;5151271;27;20046;-77
2022/11/11 06:06:36;;;;;;;27.92;17.73;;;10.30;99.90;;;;;;5134687;27;20146;-77
2022/11/11 06:09:03;;;;;;;25.80;17.63;;;10.30;99.90;;;;;;5131633;27;20047;-77
2022/11/11 06:11:29;;;;;;;29.45;19.20;;;10.30;99.90;;;;;;5150812;27;20067;-77
2022/11/11 06:13:55;;;;;;;22.38;17.98;;;10.30;99.90;;;;;;5150931;27;20046;-77
2022/11/11 06:16:21;;;;;;;26.70;17.48;;;10.30;99.90;;;;;;5133973;27;20043;-77
2022/11/11 06:18:48;;;;;;;33.53;18.67;;;10.30;99.90;;;;;;5151322;27;20437;-77
2022/11/11 06:21:13;;;;;;;33.45;18.20;;;10.40;99.90;;;;;;5143096;27;20055;-77
2022/11/11 06:23:39;;;;;;;25.80;17.23;;;10.30;99.90;;;;;;5130078;27;20047;-77
2022/11/11 06:26:15;;;;;;;25.77;16.65;;;10.30;99.90;;;;;;5136750;27;20035;-77
2022/11/11 06:28:55;;;;;;;26.70;18.00;;;10.30;99.90;;;;;;5148032;27;20568;-77
2022/11/11 06:31:23;;;;;;;26.83;17.95;;;10.60;99.90;;;;;;5148414;27;20082;-77
2022/11/11 06:33:49;;;;;;;28.63;17.90;;;10.30;99.90;;;;;;5133504;27;20049;-77
2022/11/11 06:36:17;;;;;;;29.00;16.88;;;10.30;99.90;;;;;;5151574;27;20043;-77
2022/11/11 06:38:42;;;;;;;27.40;17.98;;;10.30;99.90;;;;;;5145417;27;20551;-77
2022/11/11 06:41:11;;;;;;;23.73;16.45;;;10.30;99.90;;;;;;5147180;27;20039;-77
2022/11/11 06:43:41;;;;;;;27.13;18.00;;;10.40;99.90;;;;;;5136545;27;21784;-77
2022/11/11 06:46:15;;;;;;;22.75;16.73;;;10.40;99.90;;;;;;5140437;27;20043;-76
2022/11/11 06:48:42;;;;;;;24.23;17.25;;;10.40;99.90;;;;;;5137766;27;20045;-77
2022/11/11 06:51:10;;;;;;;22.48;17.02;;;10.40;99.90;;;;;;5130707;27;20043;-77
2022/11/11 06:53:35;;;;;;;28.25;16.63;;;10.40;99.90;;;;;;5129849;27;20377;-77
2022/11/11 06:56:01;;;;;;;24.25;16.55;;;10.40;99.90;;;;;;5128833;27;20043;-77
2022/11/11 06:58:27;;;;;;;26.05;17.95;;;10.40;99.90;;;;;;5129495;27;20135;-77
2022/11/11 07:00:52;;;;;;;23.27;17.13;;;10.20;99.90;;;;;;5135581;27;20445;-77
2022/11/11 07:03:20;;;;;;;24.05;16.67;;;10.40;99.90;;;;;;5145625;27;20050;-77
2022/11/11 07:05:45;;;;;;;25.92;16.50;;;10.40;99.90;;;;;;5147983;27;20121;-77
2022/11/11 07:08:16;;;;;;;24.20;16.90;;;10.40;99.90;;;;;;5151289;27;20126;-78
2022/11/11 07:10:47;;;;;;;24.95;17.90;;;10.80;99.90;;;;;;5142968;27;20118;-77
2022/11/11 07:13:14;;;;;;;25.45;16.83;;;10.40;99.90;;;;;;5147219;27;20046;-77
2022/11/11 07:15:42;;;;;;;24.95;17.00;;;11.00;99.90;;;;;;5146152;27;20046;-77
2022/11/11 07:18:08;;;;;;;22.20;15.60;;;10.40;99.90;;;;;;5149739;27;20063;-77
2022/11/11 07:20:35;;;;;;;24.92;17.38;;;10.50;99.90;;;;;;5132398;27;20047;-77
2022/11/11 07:23:00;;;;;;;24.70;15.57;;;10.40;99.90;;;;;;5150385;27;20079;-78
2022/11/11 07:25:26;;;;;;;25.50;17.08;;;10.40;99.90;;;;;;5145932;27;20054;-78
2022/11/11 07:27:52;;;;;;;21.63;16.83;;;10.40;99.90;;;;;;5149295;27;20115;-77
2022/11/11 07:30:18;;;;;;;24.50;17.65;;;10.50;99.90;;;;;;5150118;27;20411;-77
2022/11/11 07:32:46;;;;;;;22.63;16.85;;;10.50;99.90;;;;;;5150866;27;20061;-78
2022/11/11 07:35:13;;;;;;;24.30;15.48;;;10.00;99.90;;;;;;5148010;27;20051;-77
2022/11/11 07:37:39;;;;;;;22.35;16.02;;;10.50;99.90;;;;;;5140772;27;20061;-77
2022/11/11 07:40:06;;;;;;;22.73;15.43;;;10.50;99.90;;;;;;5130211;27;20186;-77
2022/11/11 07:42:35;;;;;;;23.02;16.15;;;10.50;99.90;;;;;;5131327;27;20039;-78
2022/11/11 07:45:01;;;;;;;24.67;16.17;;;10.50;99.90;;;;;;5148774;27;20050;-78
2022/11/11 07:47:26;;;;;;;24.38;16.02;;;10.50;99.90;;;;;;5148257;27;20049;-77
2022/11/11 07:49:52;;;;;;;23.35;14.98;;;10.50;99.90;;;;;;5133973;27;20039;-78
2022/11/11 07:52:17;;;;;;;23.73;15.55;;;10.60;99.90;;;;;;5128846;27;20043;-78
2022/11/11 07:54:43;;;;;;;25.30;15.77;;;10.60;99.90;;;;;;5128830;27;20076;-78
2022/11/11 07:57:09;;;;;;;24.35;15.80;;;10.60;99.90;;;;;;5129139;27;20665;-78
2022/11/11 07:59:34;;;;;;;21.40;15.00;;;10.60;99.90;;;;;;5142653;27;20050;-77
2022/11/11 08:02:00;;;;;;;22.05;15.45;;;10.60;99.90;;;;;;5144699;27;20075;-78
2022/11/11 08:04:26;;;;;;;21.85;15.43;;;10.50;99.90;;;;;;5133289;27;20113;-78
2022/11/11 08:06:51;;;;;;;19.77;14.40;;;10.60;99.90;;;;;;5150457;27;20042;-77
2022/11/11 08:09:17;;;;;;;22.45;14.70;;;10.50;99.90;;;;;;5148732;27;20509;-77
2022/11/11 08:14:26;;;;;;;20.88;15.23;;;10.50;99.90;;;;;;5148460;27;20054;-77
2022/11/11 08:16:52;;;;;;;19.65;14.68;;;10.60;99.90;;;;;;5135117;27;20061;-77
2022/11/11 08:19:18;;;;;;;21.27;13.07;;;10.50;99.90;;;;;;5127455;27;20054;-77
2022/11/11 08:21:43;;;;;;;19.40;14.52;;;11.10;99.90;;;;;;5129252;27;20141;-77
2022/11/11 08:24:10;;;;;;;20.48;14.55;;;10.80;99.90;;;;;;5129418;27;20047;-77
2022/11/11 08:26:35;;;;;;;19.33;14.07;;;10.80;99.90;;;;;;5127350;27;20046;-77
2022/11/11 08:29:01;;;;;;;19.63;14.35;;;11.40;99.90;;;;;;5128321;27;20126;-78
2022/11/11 08:31:27;;;;;;;20.52;14.05;;;10.90;99.90;;;;;;5129504;27;20043;-77
2022/11/11 08:33:52;;;;;;;19.58;14.15;;;10.90;99.90;;;;;;5128905;27;20541;-77
2022/11/11 08:36:18;;;;;;;22.48;13.85;;;10.90;99.90;;;;;;5127962;27;20114;-78
2022/11/11 08:38:44;;;;;;;20.38;13.95;;;10.90;99.90;;;;;;5128117;27;20480;-77
2022/11/11 08:41:09;;;;;;;21.33;13.65;;;10.90;99.90;;;;;;5128173;27;20138;-77
2022/11/11 08:43:35;;;;;;;20.55;13.50;;;11.00;99.90;;;;;;5127607;27;20139;-77
2022/11/11 08:46:02;;;;;;;21.58;13.60;;;11.00;99.90;;;;;;5110725;27;20058;-77
2022/11/11 08:48:29;;;;;;;17.98;12.93;;;11.00;99.90;;;;;;5127744;27;20064;-77
2022/11/11 08:50:56;;;;;;;19.35;13.07;;;11.10;99.90;;;;;;5134910;27;20095;-77
2022/11/11 08:53:21;;;;;;;18.23;12.30;;;11.00;99.90;;;;;;5127799;27;20090;-77
2022/11/11 08:55:47;;;;;;;19.45;12.95;;;11.00;99.90;;;;;;5128601;27;20121;-77
2022/11/11 08:58:13;;;;;;;18.58;13.00;;;11.10;99.90;;;;;;5127533;27;20130;-78
2022/11/11 09:00:40;;;;;;;18.35;13.05;;;11.20;99.90;;;;;;5128476;27;20075;-77
2022/11/11 09:03:09;;;;;;;20.15;13.60;;;11.10;99.90;;;;;;5127906;27;20086;-77
2022/11/11 09:05:36;;;;;;;16.35;12.27;;;11.00;99.90;;;;;;5133381;27;20493;-78
2022/11/11 09:08:06;;;;;;;21.98;12.20;;;11.20;99.90;;;;;;5146730;27;20038;-77
2022/11/11 09:10:36;;;;;;;14.57;11.82;;;11.00;99.90;;;;;;5140533;27;20428;-78
2022/11/11 09:13:02;;;;;;;18.45;12.45;;;11.30;99.90;;;;;;5140030;27;20049;-78
2022/11/11 09:15:28;;;;;;;18.33;12.02;;;11.30;99.90;;;;;;5146868;27;20042;-80
2022/11/11 09:17:54;;;;;;;19.02;11.82;;;11.30;99.90;;;;;;5142606;27;20046;-80
2022/11/11 09:20:20;;;;;;;17.60;11.85;;;11.70;99.90;;;;;;5147322;27;20118;-80
2022/11/11 09:22:48;;;;;;;18.70;11.45;;;11.20;99.90;;;;;;5144742;27;20034;-79
2022/11/11 09:25:14;;;;;;;18.83;12.40;;;11.30;99.90;;;;;;5148082;27;20043;-80
2022/11/11 09:27:40;;;;;;;14.32;11.40;;;11.40;99.90;;;;;;5137438;27;20126;-80
2022/11/11 09:30:07;;;;;;;14.93;11.15;;;11.40;99.90;;;;;;5135852;27;20786;-79
2022/11/11 09:32:33;;;;;;;17.98;11.70;;;11.40;99.90;;;;;;5147981;27;20050;-81
2022/11/11 09:34:59;;;;;;;14.50;10.80;;;12.20;99.90;;;;;;5146856;27;20050;-81
2022/11/11 09:37:25;;;;;;;15.35;10.93;;;11.40;99.90;;;;;;5148024;27;20046;-81
2022/11/11 09:39:50;;;;;;;15.40;11.07;;;11.40;99.90;;;;;;5138076;27;20043;-81
2022/11/11 09:42:45;;;;;;;21.80;11.27;;;11.40;99.90;;;;;;5115725;27;20066;-81
2022/11/11 09:45:33;;;;;;;14.82;11.02;;;11.40;99.90;;;;;;5127147;28;20493;-80
2022/11/11 09:48:08;;;;;;;16.60;10.60;;;11.40;99.90;;;;;;5123559;27;20062;-80
2022/11/11 09:50:37;;;;;;;14.45;10.88;;;11.40;99.90;;;;;;5147528;27;20046;-79
2022/11/11 09:53:18;;;;;;;14.80;11.57;;;11.50;99.90;;;;;;5129928;27;20043;-80
2022/11/11 09:55:57;;;;;;;15.98;10.80;;;11.50;99.90;;;;;;5145969;27;20051;-80
2022/11/11 09:58:34;;;;;;;14.30;10.32;;;11.50;99.90;;;;;;5142647;27;20090;-81
2022/11/11 10:01:09;;;;;;;14.40;10.88;;;11.60;99.90;;;;;;5146669;27;20504;-79
2022/11/11 10:03:39;;;;;;;16.65;11.25;;;;;;;;;;5150502;27;20556;-80
2022/11/11 10:06:22;;;;;;;14.10;10.50;;;11.70;99.90;;;;;;5150556;27;20718;-80
2022/11/11 10:09:01;;;;;;;16.67;10.43;;;11.80;99.90;;;;;;5124914;27;20188;-81
2022/11/11 10:11:45;;;;;;;11.82;9.57;;;11.80;99.90;;;;;;5149139;27;20035;-80
2022/11/11 10:14:11;;;;;;;15.35;10.68;;;11.90;99.90;;;;;;5142742;27;20054;-80
2022/11/11 10:17:08;;;;;;;16.60;10.35;;;12.00;99.90;;;;;;5124348;27;20050;-80
2022/11/11 10:19:57;;;;;;;12.20;10.90;;;11.90;99.90;;;;;;5132910;27;20034;-80
2022/11/11 10:22:39;;;;;;;11.52;9.45;;;11.90;99.90;;;;;;5150347;27;20047;-80
2022/11/11 10:25:20;;;;;;;13.05;10.10;;;11.90;99.90;;;;;;5150168;27;20039;-80
2022/11/11 10:27:49;;;;;;;14.00;10.65;;;12.00;99.90;;;;;;5146348;27;20057;-79
2022/11/11 10:30:25;;;;;;;16.52;10.70;;;12.00;99.90;;;;;;5149719;27;20050;-79
2022/11/11 10:33:01;;;;;;;14.63;9.88;;;12.00;99.90;;;;;;5149559;27;20058;-79
2022/11/11 10:35:30;;;;;;;14.25;10.38;;;12.10;99.90;;;;;;5150397;27;20097;-79
2022/11/11 10:38:24;;;;;;;17.65;10.07;;;12.10;99.90;;;;;;5149357;27;20050;-80
2022/11/11 10:40:55;;;;;;;27.52;11.65;;;12.10;99.90;;;;;;5151820;27;20058;-80
2022/11/11 10:43:26;;;;;;;13.75;10.10;;;12.10;99.90;;;;;;5148905;27;20053;-79
2022/11/11 10:46:03;;;;;;;13.43;9.90;;;12.10;99.90;;;;;;5147661;27;20408;-78
2022/11/11 10:48:40;;;;;;;13.70;10.27;;;;;;;;;;5148612;27;20050;-77
2022/11/11 10:51:06;;;;;;;14.48;10.48;;;12.10;99.90;;;;;;5141063;27;20339;-78
2022/11/11 10:53:43;;;;;;;14.95;10.48;;;12.10;99.90;;;;;;5131369;27;20047;-77
2022/11/11 10:56:20;;;;;;;15.23;10.02;;;12.00;99.90;;;;;;5130958;27;20039;-78
2022/11/11 10:58:53;;;;;;;13.25;10.75;;;12.00;99.90;;;;;;5112724;27;20051;-78
2022/11/11 11:01:31;;;;;;;;;;;12.00;99.90;;;;;;5146486;27;20039;-78
2022/11/11 11:04:33;;;;;;;12.38;9.80;;;12.00;99.90;;;;;;5144201;27;19929;-78
2022/11/11 11:07:02;;;;;;;13.70;10.30;;;11.90;99.90;;;;;;5127497;27;20103;-79
2022/11/11 11:09:41;;;;;;;14.18;10.20;;;12.00;99.90;;;;;;5146526;27;20060;-78
2022/11/11 11:12:34;;;;;;;13.68;10.38;;;11.90;99.90;;;;;;5148771;27;20420;-78
2022/11/11 11:15:01;;;;;;;;;;;12.00;99.90;;;;;;5151168;27;20095;-79
2022/11/11 11:17:39;;;;;;;14.85;9.95;;;12.00;99.90;;;;;;5150578;27;19934;-80
2022/11/11 11:20:19;;;;;;;16.48;12.05;;;12.10;99.90;;;;;;5150841;27;20535;-79
2022/11/11 11:22:54;;;;;;;16.23;11.55;;;12.10;99.90;;;;;;5147324;27;20055;-79
2022/11/11 11:25:21;;;;;;;16.00;10.57;;;12.10;99.90;;;;;;5150000;27;20279;-80
2022/11/11 11:27:49;;;;;;;13.75;10.45;;;12.10;99.90;;;;;;5140830;27;20564;-79
2022/11/11 11:30:19;;;;;;;14.05;11.18;;;12.10;99.90;;;;;;5147452;27;20773;-79
2022/11/11 11:32:57;;;;;;;14.77;10.15;;;12.10;99.90;;;;;;5149236;27;20038;-78
2022/11/11 11:35:38;;;;;;;16.17;11.02;;;12.10;99.90;;;;;;5147344;27;20050;-78
2022/11/11 11:38:06;;;;;;;13.82;11.02;;;12.10;99.90;;;;;;5149704;27;20065;-78
2022/11/11 11:40:55;;;;;;;17.00;11.05;;;12.10;99.90;;;;;;5138570;27;20043;-78
2022/11/11 11:43:34;;;;;;;15.05;11.50;;;12.10;99.90;;;;;;5148839;27;20055;-78
2022/11/11 11:46:02;;;;;;;13.65;10.63;;;12.10;99.90;;;;;;5111558;27;20085;-78
2022/11/11 11:48:50;;;;;;;12.98;10.68;;;12.10;99.90;;;;;;5143661;27;20044;-78
2022/11/11 11:51:27;;;;;;;12.93;10.52;;;12.20;99.90;;;;;;5148518;27;20051;-79
2022/11/11 11:54:22;;;;;;;13.27;10.82;;;12.20;99.90;;;;;;5146464;27;20039;-78
2022/11/11 11:56:51;;;;;;;12.48;9.90;;;12.30;99.90;;;;;;5129202;27;20063;-78
2022/11/11 11:59:45;;;;;;;11.73;9.60;;;12.40;99.90;;;;;;5131896;27;20086;-78
2022/11/11 12:02:13;;;;;;;13.48;9.70;;;12.40;99.90;;;;;;5148909;27;20058;-79
2022/11/11 12:05:10;;;;;;;16.75;10.93;;;12.50;99.90;;;;;;5149568;27;20050;-78
2022/11/11 12:07:58;;;;;;;11.77;10.07;;;12.50;99.90;;;;;;5133685;27;20142;-79
2022/11/11 12:10:36;;;;;;;12.05;9.75;;;12.60;99.90;;;;;;5149333;27;20484;-78
2022/11/11 12:13:15;;;;;;;10.75;9.63;;;12.60;99.90;;;;;;5131742;27;20578;-80
2022/11/11 12:16:02;;;;;;;13.27;9.45;;;12.80;99.90;;;;;;5130286;27;20138;-78
2022/11/11 12:18:52;;;;;;;10.15;8.80;;;12.80;99.90;;;;;;5149019;27;20042;-79
2022/11/11 12:21:25;;;;;;;11.88;9.43;;;12.90;99.90;;;;;;5146149;27;20051;-79
2022/11/11 12:24:06;;;;;;;12.27;9.40;;;12.90;99.90;;;;;;5147350;27;20042;-79
2022/11/11 12:26:57;;;;;;;11.02;8.52;;;13.00;99.90;;;;;;5148093;27;20054;-79
2022/11/11 12:29:56;;;;;;;11.30;9.30;;;12.90;99.90;;;;;;5148853;27;20047;-79
2022/11/11 12:32:47;;;;;;;12.07;9.05;;;13.00;99.90;;;;;;5146690;27;20506;-80
2022/11/11 12:35:31;;;;;;;11.82;9.38;;;12.90;99.90;;;;;;5145262;27;20043;-80
2022/11/11 12:38:04;;;;;;;11.35;8.95;;;12.90;99.90;;;;;;5127960;27;20445;-80
2022/11/11 12:41:01;;;;;;;9.90;8.77;;;12.90;99.90;;;;;;5127840;27;20513;-80
2022/11/11 12:43:48;;;;;;;12.55;10.02;;;12.90;99.90;;;;;;5127642;27;20051;-81
2022/11/11 12:46:55;;;;;;;11.13;8.95;;;12.90;99.90;;;;;;5127526;27;20051;-81
2022/11/11 12:50:09;;;;;;;11.00;9.27;;;12.90;99.90;;;;;;5110046;27;20057;-80
2022/11/11 12:52:47;;;;;;;12.15;8.95;;;12.80;99.90;;;;;;5121527;27;20051;-81
2022/11/11 12:55:35;;;;;;;11.95;9.48;;;12.80;99.90;;;;;;5127569;27;20103;-80
2022/11/11 12:58:23;;;;;;;13.63;9.55;;;12.80;99.90;;;;;;5126961;27;20108;-81
2022/11/11 13:01:08;;;;;;;13.23;9.02;;;12.80;99.90;;;;;;5126971;27;20047;-80
2022/11/11 13:03:39;;;;;;;10.77;9.07;;;12.90;99.90;;;;;;5110606;27;20129;-80
2022/11/11 13:06:15;;;;;;;13.38;9.25;;;13.00;99.90;;;;;;5127768;27;20457;-80
2022/11/11 13:09:03;;;;;;;9.70;8.70;;;12.80;99.90;;;;;;5127340;28;20082;-81
2022/11/11 13:11:56;;;;;;;10.18;8.27;;;12.90;99.90;;;;;;5126798;28;20401;-80
2022/11/11 13:14:51;;;;;;;11.50;8.82;;;12.90;99.90;;;;;;5127337;28;20548;-80
2022/11/11 13:17:17;;;;;;;10.02;8.40;;;13.00;99.90;;;;;;5114657;28;20707;-81
2022/11/11 13:19:49;;;;;;;10.68;8.93;;;12.90;99.90;;;;;;5135526;27;20186;-80
2022/11/11 13:22:29;;;;;;;9.55;8.48;;;12.90;99.90;;;;;;5146797;27;20412;-80
2022/11/11 13:24:57;;;;;;;11.05;8.75;;;12.90;99.90;;;;;;5131196;27;20042;-80
2022/11/11 13:27:45;;;;;;;11.82;9.85;;;12.80;99.90;;;;;;5147224;27;20547;-80
2022/11/11 13:30:44;;;;;;;11.40;8.82;;;12.80;99.90;;;;;;5148001;27;20496;-80
2022/11/11 13:33:20;;;;;;;10.25;8.55;;;12.80;99.90;;;;;;5147910;27;20042;-80
2022/11/11 13:35:49;;;;;;;12.20;8.55;;;12.80;99.90;;;;;;5147378;27;20062;-80
2022/11/11 13:38:36;;;;;;;10.82;8.60;;;12.70;99.90;;;;;;5149098;27;20050;-80
2022/11/11 13:41:05;;;;;;;9.82;8.82;;;12.70;99.90;;;;;;5133520;27;20141;-80
2022/11/11 13:43:45;;;;;;;12.32;8.90;;;12.60;99.90;;;;;;5153517;27;20051;-80
2022/11/11 13:46:30;;;;;;;10.32;8.48;;;12.60;99.90;;;;;;5151475;27;20779;-80
2022/11/11 13:48:56;;;;;;;9.25;8.27;;;12.60;99.90;;;;;;5151809;27;20377;-81
2022/11/11 13:51:30;;;;;;;11.98;8.95;;;12.70;99.90;;;;;;5151459;27;20110;-80
2022/11/11 13:53:58;;;;;;;12.45;9.05;;;12.70;99.90;;;;;;5151033;27;20119;-81
2022/11/11 13:56:42;;;;;;;13.43;9.07;;;12.60;99.90;;;;;;5148716;27;20030;-80
2022/11/11 13:59:23;;;;;;;10.27;8.88;;;12.70;99.90;;;;;;5150982;27;20069;-80
2022/11/11 14:02:25;;;;;;;12.23;9.32;;;12.60;99.90;;;;;;5134238;27;20039;-79
2022/11/11 14:05:07;;;;;;;11.95;9.65;;;12.60;99.90;;;;;;5151842;27;20131;-80
2022/11/11 14:07:48;;;;;;;12.18;9.43;;;12.60;99.90;;;;;;5151411;27;20073;-80
2022/11/11 14:10:16;;;;;;;14.30;9.10;;;12.80;99.90;;;;;;5151653;27;20812;-80
2022/11/11 14:13:05;;;;;;;10.65;9.02;;;12.60;99.90;;;;;;5131885;27;20100;-80